Celebrity Galaxy — 9HJH9 — position and weather

sailwx.info

Track history (hours):
 
Tides and Currents Weather Stations Pressure Air Temp Water Temp Dewpoint Dewpoint Depression Visibility Wind Speed Wind Dir Waves Ship Positions

Celebrity Galaxy

Last reported at 2018-May-26 23:29 UTC. Time now 2018-May-27 08:13 UTC.
Position N 39°08' E 003°07'.

Length 262 m.

Type: Passenger vessel. MMSI: 249051000.

Date/timePositionNaut miles runAvg speedWind from/ knotsBaromVisibWave heightAir tempDewpointWater temp
2018-May-26 23:29N 39°08' E 003°07'715.3
2018-May-26 23:00N 39°04' E 002°58'914.4
2018-May-26 22:22N 39°08' E 002°47'714.6
2018-May-26 21:51N 39°14' E 002°43'515.2
2018-May-26 21:30N 39°19' E 002°41'715.1
2018-May-26 21:00N 39°27' E 002°39'612.5
2018-May-26 20:30N 39°33' E 002°39'1 2.3
2018-May-26 20:00N 39°33' E 002°38'0 0.0
2018-May-26 19:30N 39°33' E 002°38'0 0.0
2018-May-26 18:59N 39°33' E 002°38'0 0.0
2018-May-26 18:29N 39°33' E 002°38'0 0.0
2018-May-26 17:50N 39°33' E 002°38'0 0.0
2018-May-26 17:29N 39°33' E 002°38'0 0.0
2018-May-26 16:59N 39°33' E 002°38'0 0.0
2018-May-26 16:29N 39°33' E 002°38'0 0.0
2018-May-26 15:59N 39°33' E 002°38'0 0.0
2018-May-26 15:29N 39°33' E 002°38'0 0.0
2018-May-26 14:59N 39°33' E 002°38'0 0.0
2018-May-26 14:29N 39°33' E 002°38'0 0.0
2018-May-26 13:56N 39°33' E 002°38'0 0.0
2018-May-26 13:29N 39°33' E 002°38'0 0.0
2018-May-26 12:59N 39°33' E 002°38'0 0.0
2018-May-26 12:29N 39°33' E 002°38'0 0.0
2018-May-26 11:59N 39°33' E 002°38'0 0.0
2018-May-26 11:29N 39°33' E 002°38'0 0.0
2018-May-26 10:56N 39°33' E 002°38'0 0.0
2018-May-26 10:29N 39°33' E 002°38'0 0.0
2018-May-26 09:59N 39°33' E 002°38'0 0.0
2018-May-26 09:29N 39°33' E 002°38'0 0.0
2018-May-26 08:59N 39°33' E 002°38'0 0.0
2018-May-26 08:29N 39°33' E 002°38'0 0.0
2018-May-26 07:56N 39°33' E 002°38'0 0.0
2018-May-26 07:26N 39°33' E 002°38'0 0.0
2018-May-26 06:56N 39°33' E 002°38'0 0.0
2018-May-26 06:29N 39°33' E 002°38'0 0.0
2018-May-26 05:29N 39°33' E 002°38'0 0.0
2018-May-26 04:59N 39°33' E 002°38'0 0.0
2018-May-26 04:29N 39°33' E 002°38'0 0.0
2018-May-26 03:56N 39°33' E 002°38'0 0.1
2018-May-26 03:30N 39°33' E 002°38'2 3.4
2018-May-26 02:59N 39°32' E 002°39'611.7
2018-May-26 02:30N 39°27' E 002°34'714.2
2018-May-26 02:00N 39°27' E 002°25'5714.2
2018-May-25 21:58N 40°24' E 002°32'6815.4
2018-May-25 17:35N 41°29' E 002°59'1115.9
2018-May-25 16:53N 41°39' E 003°04'33 2.6
2018-May-25 04:11N 41°58' E 003°40'1117.6
2018-May-25 03:32N 42°03' E 003°54'117.2
2018-May-25 03:30N 42°03' E 003°55'817.2
2018-May-25 03:00N 42°07' E 004°05'916.7
2018-May-25 02:29N 42°10' E 004°16'816.7
2018-May-25 01:59N 42°11' E 004°27'816.7
2018-May-25 01:30N 42°14' E 004°37'2417.3
2018-May-25 00:09N 42°22' E 005°07'917.7
2018-May-24 23:38N 42°25' E 005°19'417.5
2018-May-24 23:24N 42°27' E 005°24'1317.4
2018-May-24 22:38N 42°31' E 005°41'217.6
2018-May-24 22:31N 42°32' E 005°44'1017.6
2018-May-24 21:55N 42°36' E 005°56'717.6
2018-May-24 21:30N 42°39' E 006°06'1117.9
2018-May-24 20:54N 42°43' E 006°20'717.8
2018-May-24 20:30N 42°45' E 006°29'1017.2
2018-May-24 19:56N 42°49' E 006°41'817.3
2018-May-24 19:29N 42°54' E 006°48'817.2
2018-May-24 19:00N 43°01' E 006°55'917.2
2018-May-24 18:30N 43°08' E 007°02'917.1
2018-May-24 18:00N 43°14' E 007°10'918.0
2018-May-24 17:31N 43°21' E 007°18'917.9
2018-May-24 17:00N 43°30' E 007°19'917.3
2018-May-24 16:30N 43°39' E 007°19'2 0.2
2018-May-24 04:27N 43°41' E 007°19'511.1
2018-May-24 04:00N 43°39' E 007°25'814.4
2018-May-24 03:28N 43°38' E 007°36'713.3
2018-May-24 02:58N 43°38' E 007°45'613.3
2018-May-24 02:30N 43°38' E 007°54'713.6
2018-May-24 02:00N 43°37' E 008°03'714.3
2018-May-24 01:29N 43°37' E 008°13'713.9
2018-May-24 01:00N 43°36' E 008°22'713.6
2018-May-24 00:31N 43°36' E 008°32'713.5
2018-May-24 00:00N 43°35' E 008°41'713.5
2018-May-23 23:31N 43°35' E 008°50'612.8
2018-May-23 23:01N 43°35' E 008°59'713.1
2018-May-23 22:31N 43°34' E 009°08'713.3
2018-May-23 22:01N 43°34' E 009°17'713.2
2018-May-23 21:31N 43°33' E 009°26'713.4
2018-May-23 21:01N 43°33' E 009°36'713.9
2018-May-23 20:30N 43°33' E 009°45'713.8
2018-May-23 20:00N 43°32' E 009°55'713.9
2018-May-23 19:30N 43°30' E 010°04'612.6
2018-May-23 19:01N 43°31' E 010°13'4 7.6
2018-May-23 18:31N 43°33' E 010°17'1 1.7
2018-May-23 18:01N 43°33' E 010°18'0 0.0
2018-May-23 17:30N 43°33' E 010°18'0 0.0
2018-May-23 17:00N 43°33' E 010°18'0 0.0
2018-May-23 16:30N 43°33' E 010°18'0 0.0
2018-May-23 16:00N 43°33' E 010°18'0 0.0
2018-May-23 15:30N 43°33' E 010°18'0 0.0
2018-May-23 15:00N 43°33' E 010°18'0 0.0
2018-May-23 14:27N 43°33' E 010°18'0 0.0
2018-May-23 13:54N 43°33' E 010°18'0 0.0
2018-May-23 13:27N 43°33' E 010°18'0 0.0
2018-May-23 12:57N 43°33' E 010°18'0 0.0
2018-May-23 12:27N 43°33' E 010°18'0 0.0
2018-May-23 11:59N 43°33' E 010°18'0 0.0
2018-May-23 11:27N 43°33' E 010°18'0 0.0
2018-May-23 11:00N 43°33' E 010°18'0 0.0
2018-May-23 10:29N 43°33' E 010°18'0 0.0
2018-May-23 09:59N 43°33' E 010°18'0 0.0
2018-May-23 09:29N 43°33' E 010°18'0 0.0
2018-May-23 08:59N 43°33' E 010°18'0 0.0
2018-May-23 08:30N 43°33' E 010°18'0 0.0
2018-May-23 07:58N 43°33' E 010°18'0 0.6
2018-May-23 07:30N 43°33' E 010°18'2 3.4
2018-May-23 07:00N 43°32' E 010°16'612.1
2018-May-23 06:30N 43°27' E 010°12'714.7
2018-May-23 06:00N 43°19' E 010°10'918.5
2018-May-23 05:30N 43°10' E 010°08'917.9
2018-May-23 05:00N 43°02' E 010°05'917.6
2018-May-23 04:30N 42°53' E 010°03'1116.3
2018-May-23 03:49N 42°42' E 010°04'617.6
2018-May-23 03:30N 42°38' E 010°09'917.6
2018-May-23 02:59N 42°32' E 010°18'817.5
2018-May-23 02:30N 42°26' E 010°26'917.5
2018-May-23 02:00N 42°20' E 010°36'15718.0
2018-May-22 17:16N 40°42' E 013°20'519.2
2018-May-22 16:59N 40°41' E 013°27'919.3
2018-May-22 16:30N 40°40' E 013°40'919.1
2018-May-22 16:00N 40°39' E 013°52'918.4
2018-May-22 15:30N 40°40' E 014°04'918.9
2018-May-22 15:00N 40°46' E 014°14'5 9.8
2018-May-22 14:31N 40°50' E 014°16'0 0.9
2018-May-22 13:59N 40°50' E 014°16'0 0.0
2018-May-22 13:28N 40°50' E 014°16'0 0.0
2018-May-22 12:59N 40°50' E 014°16'0 0.0
2018-May-22 12:29N 40°50' E 014°16'0 0.0
2018-May-22 11:58N 40°50' E 014°16'0 0.0
2018-May-22 11:30N 40°50' E 014°16'0 0.0
2018-May-22 10:54N 40°50' E 014°16'0 0.0
2018-May-22 10:30N 40°50' E 014°16'0 0.0
2018-May-22 10:00N 40°50' E 014°16'0 0.0
2018-May-22 09:29N 40°50' E 014°16'0 0.0
2018-May-22 08:59N 40°50' E 014°16'0 0.0
2018-May-22 08:29N 40°50' E 014°16'0 0.0
2018-May-22 07:59N 40°50' E 014°16'0 0.0
2018-May-22 07:29N 40°50' E 014°16'0 0.0
2018-May-22 06:59N 40°50' E 014°16'0 0.0
2018-May-22 06:29N 40°50' E 014°16'0 0.0
2018-May-22 05:59N 40°50' E 014°16'0 0.0
2018-May-22 05:29N 40°50' E 014°16'0 0.0
2018-May-22 05:00N 40°50' E 014°16'0 0.1
2018-May-22 04:30N 40°50' E 014°16'2 3.3
2018-May-22 04:00N 40°49' E 014°17'611.7
2018-May-22 03:30N 40°44' E 014°14'713.5
2018-May-22 03:00N 40°38' E 014°09'815.1
2018-May-22 02:30N 40°31' E 014°06'713.9
2018-May-22 02:00N 40°24' E 014°04'713.3
2018-May-22 01:30N 40°17' E 014°02'814.4
2018-May-22 00:56N 40°09' E 013°60'614.8
2018-May-22 00:31N 40°03' E 013°58'2114.7
2018-May-21 23:03N 39°42' E 013°51'114.7
2018-May-21 23:00N 39°42' E 013°51'714.1
2018-May-21 22:30N 39°35' E 013°49'713.2
2018-May-21 22:00N 39°28' E 013°48'713.2
2018-May-21 21:30N 39°22' E 013°46'713.4
2018-May-21 21:00N 39°16' E 013°44'4615.5
2018-May-21 18:04N 38°31' E 013°31'215.7
2018-May-21 17:56N 38°29' E 013°30'715.9
2018-May-21 17:30N 38°22' E 013°30'815.5
2018-May-21 16:59N 38°14' E 013°28'613.2
2018-May-21 16:30N 38°09' E 013°25'3 5.4
2018-May-21 16:00N 38°08' E 013°22'0 0.2
2018-May-21 15:28N 38°08' E 013°22'0 0.0
2018-May-21 14:58N 38°08' E 013°22'0 0.0
2018-May-21 14:28N 38°08' E 013°22'0 0.0
2018-May-21 13:58N 38°08' E 013°22'0 0.0
2018-May-21 13:28N 38°08' E 013°22'0 0.0
2018-May-21 12:58N 38°08' E 013°22'0 0.0
2018-May-21 12:28N 38°08' E 013°22'0 0.0
2018-May-21 11:58N 38°08' E 013°22'0 0.0
2018-May-21 11:28N 38°08' E 013°22'0 0.0
2018-May-21 10:58N 38°08' E 013°22'0 0.0
2018-May-21 10:28N 38°08' E 013°22'0 0.0
2018-May-21 09:58N 38°08' E 013°22'0 0.0
2018-May-21 09:28N 38°08' E 013°22'0 0.0
2018-May-21 08:58N 38°08' E 013°22'0 0.0
2018-May-21 08:28N 38°08' E 013°22'0 0.0
2018-May-21 07:58N 38°08' E 013°22'0 0.0
2018-May-21 07:28N 38°08' E 013°22'0 0.0
2018-May-21 06:58N 38°08' E 013°22'0 0.0
2018-May-21 06:28N 38°08' E 013°22'0 0.0
2018-May-21 05:58N 38°08' E 013°22'0 0.0
2018-May-21 05:30N 38°08' E 013°22'2 3.2
2018-May-21 05:00N 38°08' E 013°24'510.4
2018-May-21 04:30N 38°13' E 013°24'713.8
2018-May-21 04:00N 38°19' E 013°19'815.4
2018-May-21 03:30N 38°18' E 013°09'815.3
2018-May-21 03:00N 38°17' E 012°60'815.0
2018-May-21 02:29N 38°17' E 012°50'44416.5
2018-May-19 23:35N 38°57' E 003°24'1819.1
2018-May-19 22:38N 39°02' E 003°01'419.1
2018-May-19 22:24N 39°03' E 002°56'819.0
2018-May-19 21:57N 39°09' E 002°48'919.3
2018-May-19 21:30N 39°17' E 002°42'918.7
2018-May-19 21:00N 39°25' E 002°39'815.5
2018-May-19 20:30N 39°33' E 002°39'1 1.9
2018-May-19 20:00N 39°33' E 002°38'0 0.0
2018-May-19 19:30N 39°33' E 002°38'0 0.0
2018-May-19 18:59N 39°33' E 002°38'0 0.0
2018-May-19 18:29N 39°33' E 002°38'0 0.0
2018-May-19 17:59N 39°33' E 002°38'0 0.0
2018-May-19 17:29N 39°33' E 002°38'0 0.0
2018-May-19 16:59N 39°33' E 002°38'0 0.0
2018-May-19 16:29N 39°33' E 002°38'0 0.0
2018-May-19 15:59N 39°33' E 002°38'0 0.0
2018-May-19 15:29N 39°33' E 002°38'0 0.0
2018-May-19 14:59N 39°33' E 002°38'0 0.0
2018-May-19 14:29N 39°33' E 002°38'0 0.0
2018-May-19 13:59N 39°33' E 002°38'0 0.0
2018-May-19 13:29N 39°33' E 002°38'0 0.0
2018-May-19 12:59N 39°33' E 002°38'0 0.0
2018-May-19 12:29N 39°33' E 002°38'0 0.0
2018-May-19 11:59N 39°33' E 002°38'0 0.0
2018-May-19 11:29N 39°33' E 002°38'0 0.0
2018-May-19 10:59N 39°33' E 002°38'0 0.0
2018-May-19 10:29N 39°33' E 002°38'0 0.0
2018-May-19 09:59N 39°33' E 002°38'0 0.0
2018-May-19 09:29N 39°33' E 002°38'0 0.0
2018-May-19 08:56N 39°33' E 002°38'0 0.0
2018-May-19 08:29N 39°33' E 002°38'0 0.0
2018-May-19 07:59N 39°33' E 002°38'0 0.0
2018-May-19 07:28N 39°33' E 002°38'0 0.0
2018-May-19 06:58N 39°33' E 002°38'0 0.0
2018-May-19 06:28N 39°33' E 002°38'0 0.0
2018-May-19 05:58N 39°33' E 002°38'0 0.0
2018-May-19 05:28N 39°33' E 002°38'0 0.0
2018-May-19 04:58N 39°33' E 002°38'0 0.0
2018-May-19 04:28N 39°33' E 002°38'0 0.0
2018-May-19 03:58N 39°33' E 002°38'0 0.2
2018-May-19 03:30N 39°33' E 002°38'2 3.8
2018-May-19 03:00N 39°31' E 002°39'511.0
2018-May-19 02:30N 39°27' E 002°35'611.3
2018-May-19 02:00N 39°26' E 002°27'9412.2
2018-May-18 18:19N 40°59' E 002°11'514.0
2018-May-18 17:57N 41°04' E 002°11'613.6
2018-May-18 17:31N 41°10' E 002°11'713.3
2018-May-18 17:01N 41°16' E 002°11'5 9.2
2018-May-18 16:30N 41°21' E 002°10'1 1.5
2018-May-18 15:59N 41°22' E 002°11'0 0.0
2018-May-18 15:29N 41°22' E 002°11'0 0.0
2018-May-18 14:59N 41°22' E 002°11'0 0.0
2018-May-18 14:29N 41°22' E 002°11'0 0.0
2018-May-18 13:59N 41°22' E 002°11'0 0.0
2018-May-18 13:29N 41°22' E 002°11'0 0.0
2018-May-18 12:59N 41°22' E 002°11'0 0.0
2018-May-18 12:31N 41°22' E 002°11'0 0.0
2018-May-18 12:01N 41°22' E 002°11'0 0.0
2018-May-18 11:29N 41°22' E 002°11'0 0.0
2018-May-18 10:58N 41°22' E 002°11'0 0.0
2018-May-18 10:28N 41°22' E 002°11'0 0.0
2018-May-18 09:58N 41°22' E 002°11'0 0.0
2018-May-18 09:28N 41°22' E 002°11'0 0.0
2018-May-18 07:22N 41°22' E 002°11'0 0.0
2018-May-18 06:55N 41°22' E 002°11'0 0.0
2018-May-18 06:28N 41°22' E 002°11'0 0.4
2018-May-18 06:01N 41°22' E 002°11'4 7.2
2018-May-18 05:30N 41°18' E 002°11'714.0
2018-May-18 05:00N 41°11' E 002°12'917.5
2018-May-18 04:30N 41°02' E 002°12'917.2
2018-May-18 04:00N 40°54' E 002°12'8416.4
2018-May-17 22:54N 39°30' E 002°18'718.5
2018-May-17 22:30N 39°25' E 002°25'816.7
2018-May-17 22:00N 39°28' E 002°35'611.2
2018-May-17 21:30N 39°33' E 002°38'0 0.7
2018-May-17 20:59N 39°33' E 002°38'0 0.0
2018-May-17 20:29N 39°33' E 002°38'0 0.0
2018-May-17 19:59N 39°33' E 002°38'0 0.0
2018-May-17 19:29N 39°33' E 002°38'0 0.0
2018-May-17 18:59N 39°33' E 002°38'0 0.0
2018-May-17 18:29N 39°33' E 002°38'0 0.0
2018-May-17 17:59N 39°33' E 002°38'0 0.0
2018-May-17 17:29N 39°33' E 002°38'0 0.0
2018-May-17 16:59N 39°33' E 002°38'0 0.0
2018-May-17 16:29N 39°33' E 002°38'0 0.0
2018-May-17 15:59N 39°33' E 002°38'0 0.0
2018-May-17 15:29N 39°33' E 002°38'0 0.0
2018-May-17 14:59N 39°33' E 002°38'0 0.0
2018-May-17 14:29N 39°33' E 002°38'0 0.0
2018-May-17 13:59N 39°33' E 002°38'0 0.0
2018-May-17 13:30N 39°33' E 002°38'0 0.0
2018-May-17 12:59N 39°33' E 002°38'0 0.0
2018-May-17 12:26N 39°33' E 002°38'0 0.0
2018-May-17 11:59N 39°33' E 002°38'0 0.0
2018-May-17 11:29N 39°33' E 002°38'0 0.0
2018-May-17 10:59N 39°33' E 002°38'0 0.0
2018-May-17 10:29N 39°33' E 002°38'0 0.0
2018-May-17 09:53N 39°33' E 002°38'0 0.0
2018-May-17 09:29N 39°33' E 002°38'0 0.0
2018-May-17 08:59N 39°33' E 002°38'0 0.0
2018-May-17 08:29N 39°33' E 002°38'0 0.0
2018-May-17 07:59N 39°33' E 002°38'0 0.0
2018-May-17 07:29N 39°33' E 002°38'0 0.0
2018-May-17 06:59N 39°33' E 002°38'0 0.0
2018-May-17 06:29N 39°33' E 002°38'0 0.0
2018-May-17 05:59N 39°33' E 002°38'0 0.0
2018-May-17 05:29N 39°33' E 002°38'0 0.0
2018-May-17 04:59N 39°33' E 002°38'0 0.0
2018-May-17 04:29N 39°33' E 002°38'0 0.0
2018-May-17 03:59N 39°33' E 002°38'0 0.0
2018-May-17 03:29N 39°33' E 002°38'0 0.0
2018-May-17 02:58N 39°33' E 002°38'0 0.0
2018-May-17 02:28N 39°33' E 002°38'0 0.0
2018-May-17 02:00N 39°33' E 002°38'0 0.0
2018-May-17 01:30N 39°33' E 002°38'0 0.0
2018-May-17 01:00N 39°33' E 002°38'0 0.0
2018-May-17 00:30N 39°33' E 002°38'0 0.0
2018-May-16 23:57N 39°33' E 002°38'0 0.0
2018-May-16 23:30N 39°33' E 002°38'  
Track history (hours):
 
Tides and Currents Weather Stations Pressure Air Temp Water Temp Dewpoint Dewpoint Depression Visibility Wind Speed Wind Dir Waves Ship Positions

Celebrity Galaxy

Last reported at 2018-May-26 23:29 UTC. Time now 2018-May-27 08:13 UTC.
Position N 39°08' E 003°07'.

Length 262 m.

Type: Passenger vessel. MMSI: 249051000.

Date/timePositionNaut miles runAvg speedWind from/ knotsBaromVisibWave heightAir tempDewpointWater temp
2018-May-26 23:29N 39°08' E 003°07'715.3
2018-May-26 23:00N 39°04' E 002°58'914.4
2018-May-26 22:22N 39°08' E 002°47'714.6
2018-May-26 21:51N 39°14' E 002°43'515.2
2018-May-26 21:30N 39°19' E 002°41'715.1
2018-May-26 21:00N 39°27' E 002°39'612.5
2018-May-26 20:30N 39°33' E 002°39'1 2.3
2018-May-26 20:00N 39°33' E 002°38'0 0.0
2018-May-26 19:30N 39°33' E 002°38'0 0.0
2018-May-26 18:59N 39°33' E 002°38'0 0.0
2018-May-26 18:29N 39°33' E 002°38'0 0.0
2018-May-26 17:50N 39°33' E 002°38'0 0.0
2018-May-26 17:29N 39°33' E 002°38'0 0.0
2018-May-26 16:59N 39°33' E 002°38'0 0.0
2018-May-26 16:29N 39°33' E 002°38'0 0.0
2018-May-26 15:59N 39°33' E 002°38'0 0.0
2018-May-26 15:29N 39°33' E 002°38'0 0.0
2018-May-26 14:59N 39°33' E 002°38'0 0.0
2018-May-26 14:29N 39°33' E 002°38'0 0.0
2018-May-26 13:56N 39°33' E 002°38'0 0.0
2018-May-26 13:29N 39°33' E 002°38'0 0.0
2018-May-26 12:59N 39°33' E 002°38'0 0.0
2018-May-26 12:29N 39°33' E 002°38'0 0.0
2018-May-26 11:59N 39°33' E 002°38'0 0.0
2018-May-26 11:29N 39°33' E 002°38'0 0.0
2018-May-26 10:56N 39°33' E 002°38'0 0.0
2018-May-26 10:29N 39°33' E 002°38'0 0.0
2018-May-26 09:59N 39°33' E 002°38'0 0.0
2018-May-26 09:29N 39°33' E 002°38'0 0.0
2018-May-26 08:59N 39°33' E 002°38'0 0.0
2018-May-26 08:29N 39°33' E 002°38'0 0.0
2018-May-26 07:56N 39°33' E 002°38'0 0.0
2018-May-26 07:26N 39°33' E 002°38'0 0.0
2018-May-26 06:56N 39°33' E 002°38'0 0.0
2018-May-26 06:29N 39°33' E 002°38'0 0.0
2018-May-26 05:29N 39°33' E 002°38'0 0.0
2018-May-26 04:59N 39°33' E 002°38'0 0.0
2018-May-26 04:29N 39°33' E 002°38'0 0.0
2018-May-26 03:56N 39°33' E 002°38'0 0.1
2018-May-26 03:30N 39°33' E 002°38'2 3.4
2018-May-26 02:59N 39°32' E 002°39'611.7
2018-May-26 02:30N 39°27' E 002°34'714.2
2018-May-26 02:00N 39°27' E 002°25'5714.2
2018-May-25 21:58N 40°24' E 002°32'6815.4
2018-May-25 17:35N 41°29' E 002°59'1115.9
2018-May-25 16:53N 41°39' E 003°04'33 2.6
2018-May-25 04:11N 41°58' E 003°40'1117.6
2018-May-25 03:32N 42°03' E 003°54'117.2
2018-May-25 03:30N 42°03' E 003°55'817.2
2018-May-25 03:00N 42°07' E 004°05'916.7
2018-May-25 02:29N 42°10' E 004°16'816.7
2018-May-25 01:59N 42°11' E 004°27'816.7
2018-May-25 01:30N 42°14' E 004°37'2417.3
2018-May-25 00:09N 42°22' E 005°07'917.7
2018-May-24 23:38N 42°25' E 005°19'417.5
2018-May-24 23:24N 42°27' E 005°24'1317.4
2018-May-24 22:38N 42°31' E 005°41'217.6
2018-May-24 22:31N 42°32' E 005°44'1017.6
2018-May-24 21:55N 42°36' E 005°56'717.6
2018-May-24 21:30N 42°39' E 006°06'1117.9
2018-May-24 20:54N 42°43' E 006°20'717.8
2018-May-24 20:30N 42°45' E 006°29'1017.2
2018-May-24 19:56N 42°49' E 006°41'817.3
2018-May-24 19:29N 42°54' E 006°48'817.2
2018-May-24 19:00N 43°01' E 006°55'917.2
2018-May-24 18:30N 43°08' E 007°02'917.1
2018-May-24 18:00N 43°14' E 007°10'918.0
2018-May-24 17:31N 43°21' E 007°18'917.9
2018-May-24 17:00N 43°30' E 007°19'917.3
2018-May-24 16:30N 43°39' E 007°19'2 0.2
2018-May-24 04:27N 43°41' E 007°19'511.1
2018-May-24 04:00N 43°39' E 007°25'814.4
2018-May-24 03:28N 43°38' E 007°36'713.3
2018-May-24 02:58N 43°38' E 007°45'613.3
2018-May-24 02:30N 43°38' E 007°54'713.6
2018-May-24 02:00N 43°37' E 008°03'714.3
2018-May-24 01:29N 43°37' E 008°13'713.9
2018-May-24 01:00N 43°36' E 008°22'713.6
2018-May-24 00:31N 43°36' E 008°32'713.5
2018-May-24 00:00N 43°35' E 008°41'713.5
2018-May-23 23:31N 43°35' E 008°50'612.8
2018-May-23 23:01N 43°35' E 008°59'713.1
2018-May-23 22:31N 43°34' E 009°08'713.3
2018-May-23 22:01N 43°34' E 009°17'713.2
2018-May-23 21:31N 43°33' E 009°26'713.4
2018-May-23 21:01N 43°33' E 009°36'713.9
2018-May-23 20:30N 43°33' E 009°45'713.8
2018-May-23 20:00N 43°32' E 009°55'713.9
2018-May-23 19:30N 43°30' E 010°04'612.6
2018-May-23 19:01N 43°31' E 010°13'4 7.6
2018-May-23 18:31N 43°33' E 010°17'1 1.7
2018-May-23 18:01N 43°33' E 010°18'0 0.0
2018-May-23 17:30N 43°33' E 010°18'0 0.0
2018-May-23 17:00N 43°33' E 010°18'0 0.0
2018-May-23 16:30N 43°33' E 010°18'0 0.0
2018-May-23 16:00N 43°33' E 010°18'0 0.0
2018-May-23 15:30N 43°33' E 010°18'0 0.0
2018-May-23 15:00N 43°33' E 010°18'0 0.0
2018-May-23 14:27N 43°33' E 010°18'0 0.0
2018-May-23 13:54N 43°33' E 010°18'0 0.0
2018-May-23 13:27N 43°33' E 010°18'0 0.0
2018-May-23 12:57N 43°33' E 010°18'0 0.0
2018-May-23 12:27N 43°33' E 010°18'0 0.0
2018-May-23 11:59N 43°33' E 010°18'0 0.0
2018-May-23 11:27N 43°33' E 010°18'0 0.0
2018-May-23 11:00N 43°33' E 010°18'0 0.0
2018-May-23 10:29N 43°33' E 010°18'0 0.0
2018-May-23 09:59N 43°33' E 010°18'0 0.0
2018-May-23 09:29N 43°33' E 010°18'0 0.0
2018-May-23 08:59N 43°33' E 010°18'0 0.0
2018-May-23 08:30N 43°33' E 010°18'0 0.0
2018-May-23 07:58N 43°33' E 010°18'0 0.6
2018-May-23 07:30N 43°33' E 010°18'2 3.4
2018-May-23 07:00N 43°32' E 010°16'612.1
2018-May-23 06:30N 43°27' E 010°12'714.7
2018-May-23 06:00N 43°19' E 010°10'918.5
2018-May-23 05:30N 43°10' E 010°08'917.9
2018-May-23 05:00N 43°02' E 010°05'917.6
2018-May-23 04:30N 42°53' E 010°03'1116.3
2018-May-23 03:49N 42°42' E 010°04'617.6
2018-May-23 03:30N 42°38' E 010°09'917.6
2018-May-23 02:59N 42°32' E 010°18'817.5
2018-May-23 02:30N 42°26' E 010°26'917.5
2018-May-23 02:00N 42°20' E 010°36'15718.0
2018-May-22 17:16N 40°42' E 013°20'519.2
2018-May-22 16:59N 40°41' E 013°27'919.3
2018-May-22 16:30N 40°40' E 013°40'919.1
2018-May-22 16:00N 40°39' E 013°52'918.4
2018-May-22 15:30N 40°40' E 014°04'918.9
2018-May-22 15:00N 40°46' E 014°14'5 9.8
2018-May-22 14:31N 40°50' E 014°16'0 0.9
2018-May-22 13:59N 40°50' E 014°16'0 0.0
2018-May-22 13:28N 40°50' E 014°16'0 0.0
2018-May-22 12:59N 40°50' E 014°16'0 0.0
2018-May-22 12:29N 40°50' E 014°16'0 0.0
2018-May-22 11:58N 40°50' E 014°16'0 0.0
2018-May-22 11:30N 40°50' E 014°16'0 0.0
2018-May-22 10:54N 40°50' E 014°16'0 0.0
2018-May-22 10:30N 40°50' E 014°16'0 0.0
2018-May-22 10:00N 40°50' E 014°16'0 0.0
2018-May-22 09:29N 40°50' E 014°16'0 0.0
2018-May-22 08:59N 40°50' E 014°16'0 0.0
2018-May-22 08:29N 40°50' E 014°16'0 0.0
2018-May-22 07:59N 40°50' E 014°16'0 0.0
2018-May-22 07:29N 40°50' E 014°16'0 0.0
2018-May-22 06:59N 40°50' E 014°16'0 0.0
2018-May-22 06:29N 40°50' E 014°16'0 0.0
2018-May-22 05:59N 40°50' E 014°16'0 0.0
2018-May-22 05:29N 40°50' E 014°16'0 0.0
2018-May-22 05:00N 40°50' E 014°16'0 0.1
2018-May-22 04:30N 40°50' E 014°16'2 3.3
2018-May-22 04:00N 40°49' E 014°17'611.7
2018-May-22 03:30N 40°44' E 014°14'713.5
2018-May-22 03:00N 40°38' E 014°09'815.1
2018-May-22 02:30N 40°31' E 014°06'713.9
2018-May-22 02:00N 40°24' E 014°04'713.3
2018-May-22 01:30N 40°17' E 014°02'814.4
2018-May-22 00:56N 40°09' E 013°60'614.8
2018-May-22 00:31N 40°03' E 013°58'2114.7
2018-May-21 23:03N 39°42' E 013°51'114.7
2018-May-21 23:00N 39°42' E 013°51'714.1
2018-May-21 22:30N 39°35' E 013°49'713.2
2018-May-21 22:00N 39°28' E 013°48'713.2
2018-May-21 21:30N 39°22' E 013°46'713.4
2018-May-21 21:00N 39°16' E 013°44'4615.5
2018-May-21 18:04N 38°31' E 013°31'215.7
2018-May-21 17:56N 38°29' E 013°30'715.9
2018-May-21 17:30N 38°22' E 013°30'815.5
2018-May-21 16:59N 38°14' E 013°28'613.2
2018-May-21 16:30N 38°09' E 013°25'3 5.4
2018-May-21 16:00N 38°08' E 013°22'0 0.2
2018-May-21 15:28N 38°08' E 013°22'0 0.0
2018-May-21 14:58N 38°08' E 013°22'0 0.0
2018-May-21 14:28N 38°08' E 013°22'0 0.0
2018-May-21 13:58N 38°08' E 013°22'0 0.0
2018-May-21 13:28N 38°08' E 013°22'0 0.0
2018-May-21 12:58N 38°08' E 013°22'0 0.0
2018-May-21 12:28N 38°08' E 013°22'0 0.0
2018-May-21 11:58N 38°08' E 013°22'0 0.0
2018-May-21 11:28N 38°08' E 013°22'0 0.0
2018-May-21 10:58N 38°08' E 013°22'0 0.0
2018-May-21 10:28N 38°08' E 013°22'0 0.0
2018-May-21 09:58N 38°08' E 013°22'0 0.0
2018-May-21 09:28N 38°08' E 013°22'0 0.0
2018-May-21 08:58N 38°08' E 013°22'0 0.0
2018-May-21 08:28N 38°08' E 013°22'0 0.0
2018-May-21 07:58N 38°08' E 013°22'0 0.0
2018-May-21 07:28N 38°08' E 013°22'0 0.0
2018-May-21 06:58N 38°08' E 013°22'0 0.0
2018-May-21 06:28N 38°08' E 013°22'0 0.0
2018-May-21 05:58N 38°08' E 013°22'0 0.0
2018-May-21 05:30N 38°08' E 013°22'2 3.2
2018-May-21 05:00N 38°08' E 013°24'510.4
2018-May-21 04:30N 38°13' E 013°24'713.8
2018-May-21 04:00N 38°19' E 013°19'815.4
2018-May-21 03:30N 38°18' E 013°09'815.3
2018-May-21 03:00N 38°17' E 012°60'815.0
2018-May-21 02:29N 38°17' E 012°50'44416.5
2018-May-19 23:35N 38°57' E 003°24'1819.1
2018-May-19 22:38N 39°02' E 003°01'419.1
2018-May-19 22:24N 39°03' E 002°56'819.0
2018-May-19 21:57N 39°09' E 002°48'919.3
2018-May-19 21:30N 39°17' E 002°42'918.7
2018-May-19 21:00N 39°25' E 002°39'815.5
2018-May-19 20:30N 39°33' E 002°39'1 1.9
2018-May-19 20:00N 39°33' E 002°38'0 0.0
2018-May-19 19:30N 39°33' E 002°38'0 0.0
2018-May-19 18:59N 39°33' E 002°38'0 0.0
2018-May-19 18:29N 39°33' E 002°38'0 0.0
2018-May-19 17:59N 39°33' E 002°38'0 0.0
2018-May-19 17:29N 39°33' E 002°38'0 0.0
2018-May-19 16:59N 39°33' E 002°38'0 0.0
2018-May-19 16:29N 39°33' E 002°38'0 0.0
2018-May-19 15:59N 39°33' E 002°38'0 0.0
2018-May-19 15:29N 39°33' E 002°38'0 0.0
2018-May-19 14:59N 39°33' E 002°38'0 0.0
2018-May-19 14:29N 39°33' E 002°38'0 0.0
2018-May-19 13:59N 39°33' E 002°38'0 0.0
2018-May-19 13:29N 39°33' E 002°38'0 0.0
2018-May-19 12:59N 39°33' E 002°38'0 0.0
2018-May-19 12:29N 39°33' E 002°38'0 0.0
2018-May-19 11:59N 39°33' E 002°38'0 0.0
2018-May-19 11:29N 39°33' E 002°38'0 0.0
2018-May-19 10:59N 39°33' E 002°38'0 0.0
2018-May-19 10:29N 39°33' E 002°38'0 0.0
2018-May-19 09:59N 39°33' E 002°38'0 0.0
2018-May-19 09:29N 39°33' E 002°38'0 0.0
2018-May-19 08:56N 39°33' E 002°38'0 0.0
2018-May-19 08:29N 39°33' E 002°38'0 0.0
2018-May-19 07:59N 39°33' E 002°38'0 0.0
2018-May-19 07:28N 39°33' E 002°38'0 0.0
2018-May-19 06:58N 39°33' E 002°38'0 0.0
2018-May-19 06:28N 39°33' E 002°38'0 0.0
2018-May-19 05:58N 39°33' E 002°38'0 0.0
2018-May-19 05:28N 39°33' E 002°38'0 0.0
2018-May-19 04:58N 39°33' E 002°38'0 0.0
2018-May-19 04:28N 39°33' E 002°38'0 0.0
2018-May-19 03:58N 39°33' E 002°38'0 0.2
2018-May-19 03:30N 39°33' E 002°38'2 3.8
2018-May-19 03:00N 39°31' E 002°39'511.0
2018-May-19 02:30N 39°27' E 002°35'611.3
2018-May-19 02:00N 39°26' E 002°27'9412.2
2018-May-18 18:19N 40°59' E 002°11'514.0
2018-May-18 17:57N 41°04' E 002°11'613.6
2018-May-18 17:31N 41°10' E 002°11'713.3
2018-May-18 17:01N 41°16' E 002°11'5 9.2
2018-May-18 16:30N 41°21' E 002°10'1 1.5
2018-May-18 15:59N 41°22' E 002°11'0 0.0
2018-May-18 15:29N 41°22' E 002°11'0 0.0
2018-May-18 14:59N 41°22' E 002°11'0 0.0
2018-May-18 14:29N 41°22' E 002°11'0 0.0
2018-May-18 13:59N 41°22' E 002°11'0 0.0
2018-May-18 13:29N 41°22' E 002°11'0 0.0
2018-May-18 12:59N 41°22' E 002°11'0 0.0
2018-May-18 12:31N 41°22' E 002°11'0 0.0
2018-May-18 12:01N 41°22' E 002°11'0 0.0
2018-May-18 11:29N 41°22' E 002°11'0 0.0
2018-May-18 10:58N 41°22' E 002°11'0 0.0
2018-May-18 10:28N 41°22' E 002°11'0 0.0
2018-May-18 09:58N 41°22' E 002°11'0 0.0
2018-May-18 09:28N 41°22' E 002°11'0 0.0
2018-May-18 07:22N 41°22' E 002°11'0 0.0
2018-May-18 06:55N 41°22' E 002°11'0 0.0
2018-May-18 06:28N 41°22' E 002°11'0 0.4
2018-May-18 06:01N 41°22' E 002°11'4 7.2
2018-May-18 05:30N 41°18' E 002°11'714.0
2018-May-18 05:00N 41°11' E 002°12'917.5
2018-May-18 04:30N 41°02' E 002°12'917.2
2018-May-18 04:00N 40°54' E 002°12'8416.4
2018-May-17 22:54N 39°30' E 002°18'718.5
2018-May-17 22:30N 39°25' E 002°25'816.7
2018-May-17 22:00N 39°28' E 002°35'611.2
2018-May-17 21:30N 39°33' E 002°38'0 0.7
2018-May-17 20:59N 39°33' E 002°38'0 0.0
2018-May-17 20:29N 39°33' E 002°38'0 0.0
2018-May-17 19:59N 39°33' E 002°38'0 0.0
2018-May-17 19:29N 39°33' E 002°38'0 0.0
2018-May-17 18:59N 39°33' E 002°38'0 0.0
2018-May-17 18:29N 39°33' E 002°38'0 0.0
2018-May-17 17:59N 39°33' E 002°38'0 0.0
2018-May-17 17:29N 39°33' E 002°38'0 0.0
2018-May-17 16:59N 39°33' E 002°38'0 0.0
2018-May-17 16:29N 39°33' E 002°38'0 0.0
2018-May-17 15:59N 39°33' E 002°38'0 0.0
2018-May-17 15:29N 39°33' E 002°38'0 0.0
2018-May-17 14:59N 39°33' E 002°38'0 0.0
2018-May-17 14:29N 39°33' E 002°38'0 0.0
2018-May-17 13:59N 39°33' E 002°38'0 0.0
2018-May-17 13:30N 39°33' E 002°38'0 0.0
2018-May-17 12:59N 39°33' E 002°38'0 0.0
2018-May-17 12:26N 39°33' E 002°38'0 0.0
2018-May-17 11:59N 39°33' E 002°38'0 0.0
2018-May-17 11:29N 39°33' E 002°38'0 0.0
2018-May-17 10:59N 39°33' E 002°38'0 0.0
2018-May-17 10:29N 39°33' E 002°38'0 0.0
2018-May-17 09:53N 39°33' E 002°38'0 0.0
2018-May-17 09:29N 39°33' E 002°38'0 0.0
2018-May-17 08:59N 39°33' E 002°38'0 0.0
2018-May-17 08:29N 39°33' E 002°38'0 0.0
2018-May-17 07:59N 39°33' E 002°38'0 0.0
2018-May-17 07:29N 39°33' E 002°38'0 0.0
2018-May-17 06:59N 39°33' E 002°38'0 0.0
2018-May-17 06:29N 39°33' E 002°38'0 0.0
2018-May-17 05:59N 39°33' E 002°38'0 0.0
2018-May-17 05:29N 39°33' E 002°38'0 0.0
2018-May-17 04:59N 39°33' E 002°38'0 0.0
2018-May-17 04:29N 39°33' E 002°38'0 0.0
2018-May-17 03:59N 39°33' E 002°38'0 0.0
2018-May-17 03:29N 39°33' E 002°38'0 0.0
2018-May-17 02:58N 39°33' E 002°38'0 0.0
2018-May-17 02:28N 39°33' E 002°38'0 0.0
2018-May-17 02:00N 39°33' E 002°38'0 0.0
2018-May-17 01:30N 39°33' E 002°38'0 0.0
2018-May-17 01:00N 39°33' E 002°38'0 0.0
2018-May-17 00:30N 39°33' E 002°38'0 0.0
2018-May-16 23:57N 39°33' E 002°38'0 0.0
2018-May-16 23:30N 39°33' E 002°38'  

Dump ship's entire track history